sensor_id;sensor_type;location;lat;lon;timestamp;temperature;humidity
30148;DHT22;16960;49.404;8.248;2024-03-08T00:01:36;20.90;37.50
30148;DHT22;16960;49.404;8.248;2024-03-08T00:04:04;20.90;37.50
30148;DHT22;16960;49.404;8.248;2024-03-08T00:06:32;20.90;37.60
30148;DHT22;16960;49.404;8.248;2024-03-08T00:08:59;20.90;37.60
30148;DHT22;16960;49.404;8.248;2024-03-08T00:11:27;20.80;37.50
30148;DHT22;16960;49.404;8.248;2024-03-08T00:13:54;20.80;37.60
30148;DHT22;16960;49.404;8.248;2024-03-08T00:16:21;20.80;37.60
30148;DHT22;16960;49.404;8.248;2024-03-08T00:18:48;20.80;37.50
30148;DHT22;16960;49.404;8.248;2024-03-08T00:21:16;20.80;37.60
30148;DHT22;16960;49.404;8.248;2024-03-08T00:23:42;20.80;37.60
30148;DHT22;16960;49.404;8.248;2024-03-08T00:26:09;20.80;37.60
30148;DHT22;16960;49.404;8.248;2024-03-08T00:28:38;20.80;37.60
30148;DHT22;16960;49.404;8.248;2024-03-08T00:31:05;20.80;37.70
30148;DHT22;16960;49.404;8.248;2024-03-08T00:33:32;20.80;37.70
30148;DHT22;16960;49.404;8.248;2024-03-08T00:35:59;20.70;37.80
30148;DHT22;16960;49.404;8.248;2024-03-08T00:38:26;20.80;37.80
30148;DHT22;16960;49.404;8.248;2024-03-08T00:40:53;20.70;37.80
30148;DHT22;16960;49.404;8.248;2024-03-08T00:43:21;20.70;37.80
30148;DHT22;16960;49.404;8.248;2024-03-08T00:45:49;20.70;37.80
30148;DHT22;16960;49.404;8.248;2024-03-08T00:48:16;20.70;37.80
30148;DHT22;16960;49.404;8.248;2024-03-08T00:50:43;20.70;37.90
30148;DHT22;16960;49.404;8.248;2024-03-08T00:53:11;20.70;37.90
30148;DHT22;16960;49.404;8.248;2024-03-08T00:55:38;20.70;38.00
30148;DHT22;16960;49.404;8.248;2024-03-08T00:58:05;20.60;37.90
30148;DHT22;16960;49.404;8.248;2024-03-08T01:00:32;20.70;38.00
30148;DHT22;16960;49.404;8.248;2024-03-08T01:03:00;20.60;38.00
30148;DHT22;16960;49.404;8.248;2024-03-08T01:05:29;20.70;38.10
30148;DHT22;16960;49.404;8.248;2024-03-08T01:07:55;20.60;38.10
30148;DHT22;16960;49.404;8.248;2024-03-08T01:10:22;20.60;38.10
30148;DHT22;16960;49.404;8.248;2024-03-08T01:12:49;20.60;38.10
30148;DHT22;16960;49.404;8.248;2024-03-08T01:15:17;20.60;38.20
30148;DHT22;16960;49.404;8.248;2024-03-08T01:17:44;20.60;38.20
30148;DHT22;16960;49.404;8.248;2024-03-08T01:20:12;20.60;38.20
30148;DHT22;16960;49.404;8.248;2024-03-08T01:22:39;20.60;38.30
30148;DHT22;16960;49.404;8.248;2024-03-08T01:25:07;20.50;38.30
30148;DHT22;16960;49.404;8.248;2024-03-08T01:27:34;20.60;38.30
30148;DHT22;16960;49.404;8.248;2024-03-08T01:30:03;20.60;38.30
30148;DHT22;16960;49.404;8.248;2024-03-08T01:32:30;20.60;38.30
30148;DHT22;16960;49.404;8.248;2024-03-08T01:34:57;20.60;38.30
30148;DHT22;16960;49.404;8.248;2024-03-08T01:37:25;20.50;38.30
30148;DHT22;16960;49.404;8.248;2024-03-08T01:39:52;20.50;38.30
30148;DHT22;16960;49.404;8.248;2024-03-08T01:42:18;20.60;38.40
30148;DHT22;16960;49.404;8.248;2024-03-08T01:44:45;20.50;38.40
30148;DHT22;16960;49.404;8.248;2024-03-08T01:47:12;20.50;38.30
30148;DHT22;16960;49.404;8.248;2024-03-08T01:49:39;20.50;38.30
30148;DHT22;16960;49.404;8.248;2024-03-08T01:52:06;20.50;38.40
30148;DHT22;16960;49.404;8.248;2024-03-08T01:54:35;20.50;38.40
30148;DHT22;16960;49.404;8.248;2024-03-08T01:57:02;20.50;38.40
30148;DHT22;16960;49.404;8.248;2024-03-08T01:59:30;20.50;38.40
30148;DHT22;16960;49.404;8.248;2024-03-08T02:02:01;20.50;38.40
30148;DHT22;16960;49.404;8.248;2024-03-08T02:04:29;20.50;38.40
30148;DHT22;16960;49.404;8.248;2024-03-08T02:06:57;20.50;38.40
30148;DHT22;16960;49.404;8.248;2024-03-08T02:09:24;20.50;38.40
30148;DHT22;16960;49.404;8.248;2024-03-08T02:11:53;20.50;38.40
30148;DHT22;16960;49.404;8.248;2024-03-08T02:14:20;20.40;38.40
30148;DHT22;16960;49.404;8.248;2024-03-08T02:16:47;20.40;38.40
30148;DHT22;16960;49.404;8.248;2024-03-08T02:19:14;20.40;38.40
30148;DHT22;16960;49.404;8.248;2024-03-08T02:21:42;20.40;38.50
30148;DHT22;16960;49.404;8.248;2024-03-08T02:24:12;20.40;38.50
30148;DHT22;16960;49.404;8.248;2024-03-08T02:26:40;20.40;38.50
30148;DHT22;16960;49.404;8.248;2024-03-08T02:29:08;20.40;38.60
30148;DHT22;16960;49.404;8.248;2024-03-08T02:31:35;20.40;38.60
30148;DHT22;16960;49.404;8.248;2024-03-08T02:34:02;20.40;38.60
30148;DHT22;16960;49.404;8.248;2024-03-08T02:36:30;20.40;38.60
30148;DHT22;16960;49.404;8.248;2024-03-08T02:39:01;20.40;38.60
30148;DHT22;16960;49.404;8.248;2024-03-08T02:41:28;20.40;38.50
30148;DHT22;16960;49.404;8.248;2024-03-08T02:43:56;20.30;38.50
30148;DHT22;16960;49.404;8.248;2024-03-08T02:46:22;20.30;38.50
30148;DHT22;16960;49.404;8.248;2024-03-08T02:48:50;20.30;38.60
30148;DHT22;16960;49.404;8.248;2024-03-08T02:51:16;20.30;38.60
30148;DHT22;16960;49.404;8.248;2024-03-08T02:53:43;20.30;38.50
30148;DHT22;16960;49.404;8.248;2024-03-08T02:56:12;20.30;38.50
30148;DHT22;16960;49.404;8.248;2024-03-08T02:58:42;20.30;38.60
30148;DHT22;16960;49.404;8.248;2024-03-08T03:01:14;20.30;38.60
30148;DHT22;16960;49.404;8.248;2024-03-08T03:03:41;20.30;38.60
30148;DHT22;16960;49.404;8.248;2024-03-08T03:06:08;20.30;38.60
30148;DHT22;16960;49.404;8.248;2024-03-08T03:08:35;20.30;38.60
30148;DHT22;16960;49.404;8.248;2024-03-08T03:11:02;20.30;38.50
30148;DHT22;16960;49.404;8.248;2024-03-08T03:13:30;20.20;38.50
30148;DHT22;16960;49.404;8.248;2024-03-08T03:15:59;20.20;38.50
30148;DHT22;16960;49.404;8.248;2024-03-08T03:18:26;20.20;38.50
30148;DHT22;16960;49.404;8.248;2024-03-08T03:20:53;20.20;38.50
30148;DHT22;16960;49.404;8.248;2024-03-08T03:23:19;20.20;38.50
30148;DHT22;16960;49.404;8.248;2024-03-08T03:25:47;20.20;38.50
30148;DHT22;16960;49.404;8.248;2024-03-08T03:28:14;20.20;38.50
30148;DHT22;16960;49.404;8.248;2024-03-08T03:30:44;20.20;38.50
30148;DHT22;16960;49.404;8.248;2024-03-08T03:33:12;20.20;38.40
30148;DHT22;16960;49.404;8.248;2024-03-08T03:35:40;20.20;38.40
30148;DHT22;16960;49.404;8.248;2024-03-08T03:38:08;20.10;38.40
30148;DHT22;16960;49.404;8.248;2024-03-08T03:40:36;20.20;38.40
30148;DHT22;16960;49.404;8.248;2024-03-08T03:43:03;20.10;38.40
30148;DHT22;16960;49.404;8.248;2024-03-08T03:45:31;20.10;38.40
30148;DHT22;16960;49.404;8.248;2024-03-08T03:48:02;20.20;38.40
30148;DHT22;16960;49.404;8.248;2024-03-08T03:50:29;20.10;38.40
30148;DHT22;16960;49.404;8.248;2024-03-08T03:52:56;20.10;38.40
30148;DHT22;16960;49.404;8.248;2024-03-08T03:55:23;20.10;38.40
30148;DHT22;16960;49.404;8.248;2024-03-08T03:57:50;20.10;38.40
30148;DHT22;16960;49.404;8.248;2024-03-08T04:00:18;20.10;38.30
30148;DHT22;16960;49.404;8.248;2024-03-08T04:02:45;20.10;38.40
30148;DHT22;16960;49.404;8.248;2024-03-08T04:05:13;20.00;38.30
30148;DHT22;16960;49.404;8.248;2024-03-08T04:07:40;20.00;38.30
30148;DHT22;16960;49.404;8.248;2024-03-08T04:10:09;20.10;38.40
30148;DHT22;16960;49.404;8.248;2024-03-08T04:12:37;20.00;38.30
30148;DHT22;16960;49.404;8.248;2024-03-08T04:15:05;20.00;38.30
30148;DHT22;16960;49.404;8.248;2024-03-08T04:17:32;20.00;38.30
30148;DHT22;16960;49.404;8.248;2024-03-08T04:20:01;20.00;38.20
30148;DHT22;16960;49.404;8.248;2024-03-08T04:22:35;20.00;38.30
30148;DHT22;16960;49.404;8.248;2024-03-08T04:25:02;20.00;38.20
30148;DHT22;16960;49.404;8.248;2024-03-08T04:27:29;20.00;38.20
30148;DHT22;16960;49.404;8.248;2024-03-08T04:29:55;20.00;38.20
30148;DHT22;16960;49.404;8.248;2024-03-08T04:32:22;20.00;38.20
30148;DHT22;16960;49.404;8.248;2024-03-08T04:34:49;20.00;38.20
30148;DHT22;16960;49.404;8.248;2024-03-08T04:37:16;20.10;38.30
30148;DHT22;16960;49.404;8.248;2024-03-08T04:39:48;20.10;38.30
30148;DHT22;16960;49.404;8.248;2024-03-08T04:42:15;20.00;38.20
30148;DHT22;16960;49.404;8.248;2024-03-08T04:44:43;20.00;38.20
30148;DHT22;16960;49.404;8.248;2024-03-08T04:47:11;20.00;38.20
30148;DHT22;16960;49.404;8.248;2024-03-08T04:49:37;20.00;38.20
30148;DHT22;16960;49.404;8.248;2024-03-08T04:52:05;20.00;38.20
30148;DHT22;16960;49.404;8.248;2024-03-08T04:54:32;20.00;38.20
30148;DHT22;16960;49.404;8.248;2024-03-08T04:57:01;20.00;38.20
30148;DHT22;16960;49.404;8.248;2024-03-08T04:59:30;19.90;38.20
30148;DHT22;16960;49.404;8.248;2024-03-08T05:01:57;19.90;38.20
30148;DHT22;16960;49.404;8.248;2024-03-08T05:04:24;19.90;38.20
30148;DHT22;16960;49.404;8.248;2024-03-08T05:06:51;19.90;38.20
30148;DHT22;16960;49.404;8.248;2024-03-08T05:09:19;19.90;38.20
30148;DHT22;16960;49.404;8.248;2024-03-08T05:11:46;19.90;38.20
30148;DHT22;16960;49.404;8.248;2024-03-08T05:14:15;19.90;38.20
30148;DHT22;16960;49.404;8.248;2024-03-08T05:16:45;19.90;38.20
30148;DHT22;16960;49.404;8.248;2024-03-08T05:19:14;19.90;38.20
30148;DHT22;16960;49.404;8.248;2024-03-08T05:21:42;19.90;38.20
30148;DHT22;16960;49.404;8.248;2024-03-08T05:24:09;19.90;38.20
30148;DHT22;16960;49.404;8.248;2024-03-08T05:26:36;19.80;38.10
30148;DHT22;16960;49.404;8.248;2024-03-08T05:29:04;19.90;38.20
30148;DHT22;16960;49.404;8.248;2024-03-08T05:31:38;19.80;38.10
30148;DHT22;16960;49.404;8.248;2024-03-08T05:34:09;19.90;38.20
30148;DHT22;16960;49.404;8.248;2024-03-08T05:36:36;19.90;38.20
30148;DHT22;16960;49.404;8.248;2024-03-08T05:39:03;19.90;38.20
30148;DHT22;16960;49.404;8.248;2024-03-08T05:41:32;19.90;38.20
30148;DHT22;16960;49.404;8.248;2024-03-08T05:43:58;19.80;38.10
30148;DHT22;16960;49.404;8.248;2024-03-08T05:46:25;19.80;38.10
30148;DHT22;16960;49.404;8.248;2024-03-08T05:48:54;19.80;38.10
30148;DHT22;16960;49.404;8.248;2024-03-08T05:51:23;19.80;38.10
30148;DHT22;16960;49.404;8.248;2024-03-08T05:53:51;19.90;38.20
30148;DHT22;16960;49.404;8.248;2024-03-08T05:56:18;19.80;38.10
30148;DHT22;16960;49.404;8.248;2024-03-08T05:58:45;19.80;38.10
30148;DHT22;16960;49.404;8.248;2024-03-08T06:01:14;19.90;38.20
30148;DHT22;16960;49.404;8.248;2024-03-08T06:03:41;19.80;38.10
30148;DHT22;16960;49.404;8.248;2024-03-08T06:06:12;19.80;38.20
30148;DHT22;16960;49.404;8.248;2024-03-08T06:08:39;19.80;38.30
30148;DHT22;16960;49.404;8.248;2024-03-08T06:11:06;19.80;38.40
30148;DHT22;16960;49.404;8.248;2024-03-08T06:13:32;19.80;38.50
30148;DHT22;16960;49.404;8.248;2024-03-08T06:15:59;19.90;38.70
30148;DHT22;16960;49.404;8.248;2024-03-08T06:18:30;19.90;38.70
30148;DHT22;16960;49.404;8.248;2024-03-08T06:20:56;19.90;38.80
30148;DHT22;16960;49.404;8.248;2024-03-08T06:23:25;20.00;38.70
30148;DHT22;16960;49.404;8.248;2024-03-08T06:25:53;20.00;38.70
30148;DHT22;16960;49.404;8.248;2024-03-08T06:28:20;20.00;38.70
30148;DHT22;16960;49.404;8.248;2024-03-08T06:30:47;20.10;38.80
30148;DHT22;16960;49.404;8.248;2024-03-08T06:33:14;20.10;38.70
30148;DHT22;16960;49.404;8.248;2024-03-08T06:35:41;20.20;38.60
30148;DHT22;16960;49.404;8.248;2024-03-08T06:38:08;20.20;38.60
30148;DHT22;16960;49.404;8.248;2024-03-08T06:40:38;20.20;38.50
30148;DHT22;16960;49.404;8.248;2024-03-08T06:43:06;20.30;38.50
30148;DHT22;16960;49.404;8.248;2024-03-08T06:45:33;20.40;38.40
30148;DHT22;16960;49.404;8.248;2024-03-08T06:48:03;20.40;38.40
30148;DHT22;16960;49.404;8.248;2024-03-08T06:50:35;20.40;38.30
30148;DHT22;16960;49.404;8.248;2024-03-08T06:53:02;20.50;38.30
30148;DHT22;16960;49.404;8.248;2024-03-08T06:55:29;20.50;38.60
30148;DHT22;16960;49.404;8.248;2024-03-08T06:57:57;20.60;38.30
30148;DHT22;16960;49.404;8.248;2024-03-08T07:00:24;20.60;38.20
30148;DHT22;16960;49.404;8.248;2024-03-08T07:02:54;20.60;38.20
30148;DHT22;16960;49.404;8.248;2024-03-08T07:05:21;20.70;38.10
30148;DHT22;16960;49.404;8.248;2024-03-08T07:07:48;20.70;38.10
30148;DHT22;16960;49.404;8.248;2024-03-08T07:10:16;20.80;38.10
30148;DHT22;16960;49.404;8.248;2024-03-08T07:12:44;20.80;38.10
30148;DHT22;16960;49.404;8.248;2024-03-08T07:15:13;20.90;38.10
30148;DHT22;16960;49.404;8.248;2024-03-08T07:17:40;20.90;38.00
30148;DHT22;16960;49.404;8.248;2024-03-08T07:20:10;21.00;37.90
30148;DHT22;16960;49.404;8.248;2024-03-08T07:22:39;21.00;37.80
30148;DHT22;16960;49.404;8.248;2024-03-08T07:25:06;21.10;37.90
30148;DHT22;16960;49.404;8.248;2024-03-08T07:27:46;21.20;37.70
30148;DHT22;16960;49.404;8.248;2024-03-08T07:30:14;21.20;37.70
30148;DHT22;16960;49.404;8.248;2024-03-08T07:33:04;21.20;37.60
30148;DHT22;16960;49.404;8.248;2024-03-08T07:35:32;21.30;37.50
30148;DHT22;16960;49.404;8.248;2024-03-08T07:38:03;21.30;37.40
30148;DHT22;16960;49.404;8.248;2024-03-08T07:40:31;21.40;37.40
30148;DHT22;16960;49.404;8.248;2024-03-08T07:42:58;21.40;37.30
30148;DHT22;16960;49.404;8.248;2024-03-08T07:45:27;21.40;37.20
30148;DHT22;16960;49.404;8.248;2024-03-08T07:47:54;21.50;37.20
30148;DHT22;16960;49.404;8.248;2024-03-08T07:50:22;21.50;37.10
30148;DHT22;16960;49.404;8.248;2024-03-08T07:52:49;21.60;37.10
30148;DHT22;16960;49.404;8.248;2024-03-08T07:55:16;21.60;37.00
30148;DHT22;16960;49.404;8.248;2024-03-08T07:57:43;21.60;36.40
30148;DHT22;16960;49.404;8.248;2024-03-08T08:00:10;21.60;36.50
30148;DHT22;16960;49.404;8.248;2024-03-08T08:02:44;21.60;36.60
30148;DHT22;16960;49.404;8.248;2024-03-08T08:05:12;21.70;36.60
30148;DHT22;16960;49.404;8.248;2024-03-08T08:07:39;21.70;36.70
30148;DHT22;16960;49.404;8.248;2024-03-08T08:10:09;21.70;36.60
30148;DHT22;16960;49.404;8.248;2024-03-08T08:12:42;21.70;36.60
30148;DHT22;16960;49.404;8.248;2024-03-08T08:15:09;21.80;36.50
30148;DHT22;16960;49.404;8.248;2024-03-08T08:17:36;21.70;36.50
30148;DHT22;16960;49.404;8.248;2024-03-08T08:20:06;21.80;36.50
30148;DHT22;16960;49.404;8.248;2024-03-08T08:22:33;21.80;36.50
30148;DHT22;16960;49.404;8.248;2024-03-08T08:25:00;21.80;36.50
30148;DHT22;16960;49.404;8.248;2024-03-08T08:27:27;21.80;36.50
30148;DHT22;16960;49.404;8.248;2024-03-08T08:29:54;21.90;36.50
30148;DHT22;16960;49.404;8.248;2024-03-08T08:32:22;21.90;36.40
30148;DHT22;16960;49.404;8.248;2024-03-08T08:34:49;21.90;36.40
30148;DHT22;16960;49.404;8.248;2024-03-08T08:37:17;21.90;36.10
30148;DHT22;16960;49.404;8.248;2024-03-08T08:39:44;22.00;35.70
30148;DHT22;16960;49.404;8.248;2024-03-08T08:42:11;22.00;35.30
30148;DHT22;16960;49.404;8.248;2024-03-08T08:44:39;22.00;34.90
30148;DHT22;16960;49.404;8.248;2024-03-08T08:47:06;22.00;34.80
30148;DHT22;16960;49.404;8.248;2024-03-08T08:49:33;22.00;34.60
30148;DHT22;16960;49.404;8.248;2024-03-08T08:52:00;22.10;34.50
30148;DHT22;16960;49.404;8.248;2024-03-08T08:54:30;22.10;34.30
30148;DHT22;16960;49.404;8.248;2024-03-08T08:56:57;22.10;34.10
30148;DHT22;16960;49.404;8.248;2024-03-08T08:59:24;22.10;33.90
30148;DHT22;16960;49.404;8.248;2024-03-08T09:01:51;22.20;33.70
30148;DHT22;16960;49.404;8.248;2024-03-08T09:04:19;22.20;33.70
30148;DHT22;16960;49.404;8.248;2024-03-08T09:06:47;22.20;33.50
30148;DHT22;16960;49.404;8.248;2024-03-08T09:09:14;22.20;33.30
30148;DHT22;16960;49.404;8.248;2024-03-08T09:11:44;22.20;33.30
30148;DHT22;16960;49.404;8.248;2024-03-08T09:14:12;22.20;33.20
30148;DHT22;16960;49.404;8.248;2024-03-08T09:16:39;22.20;33.10
30148;DHT22;16960;49.404;8.248;2024-03-08T09:19:06;22.20;33.10
30148;DHT22;16960;49.404;8.248;2024-03-08T09:21:36;22.20;33.00
30148;DHT22;16960;49.404;8.248;2024-03-08T09:24:03;22.30;33.10
30148;DHT22;16960;49.404;8.248;2024-03-08T09:26:31;22.30;33.10
30148;DHT22;16960;49.404;8.248;2024-03-08T09:29:00;22.30;32.80
30148;DHT22;16960;49.404;8.248;2024-03-08T09:31:27;22.30;32.90
30148;DHT22;16960;49.404;8.248;2024-03-08T09:33:54;22.30;32.70
30148;DHT22;16960;49.404;8.248;2024-03-08T09:36:21;22.20;32.60
30148;DHT22;16960;49.404;8.248;2024-03-08T09:38:47;22.20;32.70
30148;DHT22;16960;49.404;8.248;2024-03-08T09:41:15;22.20;32.60
30148;DHT22;16960;49.404;8.248;2024-03-08T09:43:43;22.20;32.50
30148;DHT22;16960;49.404;8.248;2024-03-08T09:46:12;22.20;32.40
30148;DHT22;16960;49.404;8.248;2024-03-08T09:48:40;22.20;32.40
30148;DHT22;16960;49.404;8.248;2024-03-08T09:51:07;22.20;32.30
30148;DHT22;16960;49.404;8.248;2024-03-08T09:53:39;22.20;32.30
30148;DHT22;16960;49.404;8.248;2024-03-08T09:56:07;22.30;32.40
30148;DHT22;16960;49.404;8.248;2024-03-08T09:58:34;22.20;32.20
30148;DHT22;16960;49.404;8.248;2024-03-08T10:01:20;22.30;32.20
30148;DHT22;16960;49.404;8.248;2024-03-08T10:03:48;22.30;32.10
30148;DHT22;16960;49.404;8.248;2024-03-08T10:06:15;22.30;32.10
30148;DHT22;16960;49.404;8.248;2024-03-08T10:08:42;22.30;32.00
30148;DHT22;16960;49.404;8.248;2024-03-08T10:11:10;22.30;31.80
30148;DHT22;16960;49.404;8.248;2024-03-08T10:13:38;22.30;31.90
30148;DHT22;16960;49.404;8.248;2024-03-08T10:16:06;22.40;31.90
30148;DHT22;16960;49.404;8.248;2024-03-08T10:18:35;22.30;31.90
30148;DHT22;16960;49.404;8.248;2024-03-08T10:21:04;22.40;31.90
30148;DHT22;16960;49.404;8.248;2024-03-08T10:23:31;22.40;31.90
30148;DHT22;16960;49.404;8.248;2024-03-08T10:26:10;22.40;31.90
30148;DHT22;16960;49.404;8.248;2024-03-08T10:28:37;22.40;31.80
30148;DHT22;16960;49.404;8.248;2024-03-08T10:31:04;22.40;31.80
30148;DHT22;16960;49.404;8.248;2024-03-08T10:33:32;22.40;31.70
30148;DHT22;16960;49.404;8.248;2024-03-08T10:36:01;22.40;31.60
30148;DHT22;16960;49.404;8.248;2024-03-08T10:38:31;22.40;31.60
30148;DHT22;16960;49.404;8.248;2024-03-08T10:41:00;22.50;31.50
30148;DHT22;16960;49.404;8.248;2024-03-08T10:43:28;22.50;31.60
30148;DHT22;16960;49.404;8.248;2024-03-08T10:46:10;22.50;31.60
30148;DHT22;16960;49.404;8.248;2024-03-08T10:48:43;22.50;31.60
30148;DHT22;16960;49.404;8.248;2024-03-08T10:51:14;22.40;31.60
30148;DHT22;16960;49.404;8.248;2024-03-08T10:53:42;22.40;31.70
30148;DHT22;16960;49.404;8.248;2024-03-08T10:56:10;22.40;31.90
30148;DHT22;16960;49.404;8.248;2024-03-08T10:58:41;22.40;31.90
30148;DHT22;16960;49.404;8.248;2024-03-08T11:01:10;22.40;32.00
30148;DHT22;16960;49.404;8.248;2024-03-08T11:03:47;22.40;32.10
30148;DHT22;16960;49.404;8.248;2024-03-08T11:06:29;22.50;32.20
30148;DHT22;16960;49.404;8.248;2024-03-08T11:08:57;22.40;32.20
30148;DHT22;16960;49.404;8.248;2024-03-08T11:11:26;22.40;32.20
30148;DHT22;16960;49.404;8.248;2024-03-08T11:14:00;22.50;32.40
30148;DHT22;16960;49.404;8.248;2024-03-08T11:16:39;22.40;32.30
30148;DHT22;16960;49.404;8.248;2024-03-08T11:19:24;22.50;32.50
30148;DHT22;16960;49.404;8.248;2024-03-08T11:22:00;22.50;32.40
30148;DHT22;16960;49.404;8.248;2024-03-08T11:24:28;22.50;32.40
30148;DHT22;16960;49.404;8.248;2024-03-08T11:26:57;22.50;32.50
30148;DHT22;16960;49.404;8.248;2024-03-08T11:29:38;22.60;32.50
30148;DHT22;16960;49.404;8.248;2024-03-08T11:32:10;22.60;32.50
30148;DHT22;16960;49.404;8.248;2024-03-08T11:34:39;22.60;32.60
30148;DHT22;16960;49.404;8.248;2024-03-08T11:37:11;22.60;32.60
30148;DHT22;16960;49.404;8.248;2024-03-08T11:39:39;22.70;32.70
30148;DHT22;16960;49.404;8.248;2024-03-08T11:42:06;22.70;32.70
30148;DHT22;16960;49.404;8.248;2024-03-08T11:44:33;22.70;32.70
30148;DHT22;16960;49.404;8.248;2024-03-08T11:47:01;22.70;32.70
30148;DHT22;16960;49.404;8.248;2024-03-08T11:49:31;22.80;32.70
30148;DHT22;16960;49.404;8.248;2024-03-08T11:51:59;22.80;32.70
30148;DHT22;16960;49.404;8.248;2024-03-08T11:54:27;22.80;32.70
30148;DHT22;16960;49.404;8.248;2024-03-08T11:56:55;22.80;32.70
30148;DHT22;16960;49.404;8.248;2024-03-08T11:59:26;22.90;32.80
30148;DHT22;16960;49.404;8.248;2024-03-08T12:02:03;22.90;32.80
30148;DHT22;16960;49.404;8.248;2024-03-08T12:04:31;22.90;32.70
30148;DHT22;16960;49.404;8.248;2024-03-08T12:06:59;22.90;32.80
30148;DHT22;16960;49.404;8.248;2024-03-08T12:09:29;22.90;32.80
30148;DHT22;16960;49.404;8.248;2024-03-08T12:11:58;22.90;32.80
30148;DHT22;16960;49.404;8.248;2024-03-08T12:14:25;22.90;32.90
30148;DHT22;16960;49.404;8.248;2024-03-08T12:16:52;22.90;32.90
30148;DHT22;16960;49.404;8.248;2024-03-08T12:19:19;23.00;32.90
30148;DHT22;16960;49.404;8.248;2024-03-08T12:21:47;22.90;33.00
30148;DHT22;16960;49.404;8.248;2024-03-08T12:24:16;23.00;33.00
30148;DHT22;16960;49.404;8.248;2024-03-08T12:26:46;23.00;33.00
30148;DHT22;16960;49.404;8.248;2024-03-08T12:29:15;23.00;33.10
30148;DHT22;16960;49.404;8.248;2024-03-08T12:31:44;23.00;33.10
30148;DHT22;16960;49.404;8.248;2024-03-08T12:34:13;23.10;33.10
30148;DHT22;16960;49.404;8.248;2024-03-08T12:36:48;23.10;33.20
30148;DHT22;16960;49.404;8.248;2024-03-08T12:39:16;23.10;33.30
30148;DHT22;16960;49.404;8.248;2024-03-08T12:41:49;23.10;33.30
30148;DHT22;16960;49.404;8.248;2024-03-08T12:44:17;23.10;33.20
30148;DHT22;16960;49.404;8.248;2024-03-08T12:46:44;23.10;33.30
30148;DHT22;16960;49.404;8.248;2024-03-08T12:49:11;23.10;33.30
30148;DHT22;16960;49.404;8.248;2024-03-08T12:51:38;23.20;33.20
30148;DHT22;16960;49.404;8.248;2024-03-08T12:54:07;23.20;33.30
30148;DHT22;16960;49.404;8.248;2024-03-08T12:56:35;23.20;33.30
30148;DHT22;16960;49.404;8.248;2024-03-08T12:59:05;23.20;33.30
30148;DHT22;16960;49.404;8.248;2024-03-08T13:01:33;23.30;33.30
30148;DHT22;16960;49.404;8.248;2024-03-08T13:04:00;23.30;33.30
30148;DHT22;16960;49.404;8.248;2024-03-08T13:06:28;23.30;33.40
30148;DHT22;16960;49.404;8.248;2024-03-08T13:08:56;23.30;33.30
30148;DHT22;16960;49.404;8.248;2024-03-08T13:11:24;23.30;33.40
30148;DHT22;16960;49.404;8.248;2024-03-08T13:13:51;23.30;33.30
30148;DHT22;16960;49.404;8.248;2024-03-08T13:16:20;23.40;33.40
30148;DHT22;16960;49.404;8.248;2024-03-08T13:18:47;23.40;33.40
30148;DHT22;16960;49.404;8.248;2024-03-08T13:21:15;23.40;33.30
30148;DHT22;16960;49.404;8.248;2024-03-08T13:23:45;23.40;33.40
30148;DHT22;16960;49.404;8.248;2024-03-08T13:26:16;23.40;33.30
30148;DHT22;16960;49.404;8.248;2024-03-08T13:28:43;23.40;33.30
30148;DHT22;16960;49.404;8.248;2024-03-08T13:31:10;23.50;33.40
30148;DHT22;16960;49.404;8.248;2024-03-08T13:33:38;23.50;33.30
30148;DHT22;16960;49.404;8.248;2024-03-08T13:36:08;23.50;33.40
30148;DHT22;16960;49.404;8.248;2024-03-08T13:38:41;23.60;33.40
30148;DHT22;16960;49.404;8.248;2024-03-08T13:41:09;23.60;33.30
30148;DHT22;16960;49.404;8.248;2024-03-08T13:43:37;23.60;33.40
30148;DHT22;16960;49.404;8.248;2024-03-08T13:46:05;23.60;33.40
30148;DHT22;16960;49.404;8.248;2024-03-08T13:48:32;23.60;33.30
30148;DHT22;16960;49.404;8.248;2024-03-08T13:51:01;23.70;33.50
30148;DHT22;16960;49.404;8.248;2024-03-08T13:53:28;23.70;33.50
30148;DHT22;16960;49.404;8.248;2024-03-08T13:55:55;23.70;33.40
30148;DHT22;16960;49.404;8.248;2024-03-08T13:58:22;23.70;33.40
30148;DHT22;16960;49.404;8.248;2024-03-08T14:00:49;23.70;33.40
30148;DHT22;16960;49.404;8.248;2024-03-08T14:03:17;23.80;33.40
30148;DHT22;16960;49.404;8.248;2024-03-08T14:05:44;23.80;33.40
30148;DHT22;16960;49.404;8.248;2024-03-08T14:08:13;23.80;33.30
30148;DHT22;16960;49.404;8.248;2024-03-08T14:10:41;23.80;33.40
30148;DHT22;16960;49.404;8.248;2024-03-08T14:13:09;23.80;33.40
30148;DHT22;16960;49.404;8.248;2024-03-08T14:15:37;23.80;33.30
30148;DHT22;16960;49.404;8.248;2024-03-08T14:18:08;23.80;33.40
30148;DHT22;16960;49.404;8.248;2024-03-08T14:20:35;23.80;33.40
30148;DHT22;16960;49.404;8.248;2024-03-08T14:23:01;23.80;33.50
30148;DHT22;16960;49.404;8.248;2024-03-08T14:25:33;23.80;33.50
30148;DHT22;16960;49.404;8.248;2024-03-08T14:28:00;23.80;33.50
30148;DHT22;16960;49.404;8.248;2024-03-08T14:30:29;23.80;33.50
30148;DHT22;16960;49.404;8.248;2024-03-08T14:33:00;23.80;33.50
30148;DHT22;16960;49.404;8.248;2024-03-08T14:35:27;23.80;33.50
30148;DHT22;16960;49.404;8.248;2024-03-08T14:37:55;23.80;33.50
30148;DHT22;16960;49.404;8.248;2024-03-08T14:40:23;23.80;33.50
30148;DHT22;16960;49.404;8.248;2024-03-08T14:42:51;23.80;33.50
30148;DHT22;16960;49.404;8.248;2024-03-08T14:45:19;23.80;33.50
30148;DHT22;16960;49.404;8.248;2024-03-08T14:47:46;23.80;33.60
30148;DHT22;16960;49.404;8.248;2024-03-08T14:50:16;23.80;33.50
30148;DHT22;16960;49.404;8.248;2024-03-08T14:52:44;23.80;33.50
30148;DHT22;16960;49.404;8.248;2024-03-08T14:55:12;23.80;33.50
30148;DHT22;16960;49.404;8.248;2024-03-08T14:57:40;23.80;33.50
30148;DHT22;16960;49.404;8.248;2024-03-08T15:00:09;23.80;33.50
30148;DHT22;16960;49.404;8.248;2024-03-08T15:02:42;23.80;33.60
30148;DHT22;16960;49.404;8.248;2024-03-08T15:05:09;23.80;33.50
30148;DHT22;16960;49.404;8.248;2024-03-08T15:07:38;23.80;33.50
30148;DHT22;16960;49.404;8.248;2024-03-08T15:10:07;23.80;33.40
30148;DHT22;16960;49.404;8.248;2024-03-08T15:12:37;23.80;33.50
30148;DHT22;16960;49.404;8.248;2024-03-08T15:15:07;23.90;33.60
30148;DHT22;16960;49.404;8.248;2024-03-08T15:17:37;23.90;33.60
30148;DHT22;16960;49.404;8.248;2024-03-08T15:20:06;23.90;33.50
30148;DHT22;16960;49.404;8.248;2024-03-08T15:22:41;23.90;33.60
30148;DHT22;16960;49.404;8.248;2024-03-08T15:25:09;23.90;33.50
30148;DHT22;16960;49.404;8.248;2024-03-08T15:27:40;23.90;33.60
30148;DHT22;16960;49.404;8.248;2024-03-08T15:30:08;23.90;33.60
30148;DHT22;16960;49.404;8.248;2024-03-08T15:32:43;23.90;33.60
30148;DHT22;16960;49.404;8.248;2024-03-08T15:35:10;23.90;33.60
30148;DHT22;16960;49.404;8.248;2024-03-08T15:37:40;23.90;33.60